Portada
METAR-TAF:

METAR-TAF

Aeropuertos :

Kalaleh, Irán

latitud: 37-22-60N, longitud: 55-27-07E, altitud: 130 m

Observación

El informe se hizo hace 1 hora y 4 minutos, a las 23:00 UTC
Viento calma
Temperatura 15°C
Humedad 88%
Presión 1017 hPa

METAR: OINE 272300Z AUTO 00000KT //// // ////// 15/13 Q1017

Hora: 04:34 (00:04 UTC)


TAF: falta

Observaciones y pronósticos meteorológicos de más de 4000 aeropuertos (mensajes METAR y TAF).

Los puntos amarillos y rojos representan las estaciones disponibles.

Ponga el ratón en el punto deseado para ver el nombre de la estación.

Haga clic para ver las observaciones y los pronósticos meteorológicos.

Para cambiar el mapa : haga clic en los botones verdes con una cruz de color negro para hacer un zoom, en el botón verde con un guión para alejar o en las flechas verdes para mapas adyacentes.


METAR-TAF: